Aérodrome :
LOGIN :

S'inscrire | Disclaimer

   EN    FR    IT 

 










Légende :    VFR   VFR Marginal   IFR   IFR Intensif   IFR Très Intensif
Visi : 
Plafond : 
>= 8 km
>= 3000ft
5 à 8 km
1000 à 3000 ft
1500m à 5 km
500 à 1000 ft
800 à 1500m
200 à 500 ft
< 800m
< 200 ft
Symboles :   Orages  Brouillard  Fortes neiges  Fortes précipitations  Vent > 20 kt
SIGMETs :   Divers  Orages  Givrage  Turbulence  Onde Orograph.  Cendres Volcan.







- Altitude de l'aérodrome : 1910 ft
- Code IATA : RDZ
- Voir les cartes d'approche


LFCR - Rodez

DERNIER METAR :
  • 202000Z AUTO 14007KT CAVOK 17/06 Q1023 NOSIG

METARs EXPIRÉS :
  • 201930Z AUTO 15005KT CAVOK 15/06 Q1022 NOSIG
  • 201900Z AUTO VRB02KT CAVOK 18/05 Q1022 NOSIG
  • 201830Z AUTO VRB03KT CAVOK 18/06 Q1022 NOSIG
  • 201800Z AUTO 15004KT 110V180 CAVOK 19/07 Q1022 NOSIG
  • 201730Z AUTO 17008KT CAVOK 21/07 Q1022 NOSIG

TAF TAF LFCR
Valide du 20 à 18h jusqu'au 21 à 18h UTC


201700Z 2018/2118 15010KT CAVOK
BECMG 2019/2021 VRB03KT
Pas de NOTAMs connus pour ce terrain.



MET'MAP, la Météo Aéronautique d'un coup d'oeil ! - Copyright ORBIFLY Décembre 2007 - Disclaimer

ORBIFLY MET'MAP TEAM :

Programmation & Développement : Alexandra Zaïnal
Conception & Développement : Baudouin d'Aumeries
Co-Programmation & Développement : Marc-Olivier Méhu
Soutien technique & logistique : Manuel Goepfert

Contact : metmap@orbifly.com




SOURCES & CREDITS :

   NOAA